Time;durP1;ratioP1;P1;durP2;ratioP2;P2;SDS_P1;SDS_P2;PMS_P1;PMS_P2;Temp;Humidity;BMP_temperature;BMP_pressure;BME280_temperature;BME280_humidity;BME280_pressure;Samples;Min_cycle;Max_cycle;Signal;HPM_P1;HPM_P2
2024/02/21 00:01:40;;;;;;;9.25;1.40;;;10.20;99.90;;;;;;5035802;28;20017;-41
2024/02/21 00:04:06;;;;;;;16.73;3.08;;;10.10;99.90;;;;;;5055455;28;20098;-41
2024/02/21 00:06:32;;;;;;;9.27;2.05;;;10.10;99.90;;;;;;5053927;28;20029;-54
2024/02/21 00:08:58;;;;;;;12.23;2.35;;;10.10;99.90;;;;;;5036186;28;20025;-56
2024/02/21 00:11:24;;;;;;;10.48;2.17;;;10.10;99.90;;;;;;5035227;28;20535;-56
2024/02/21 00:13:50;;;;;;;10.00;2.88;;;10.20;99.90;;;;;;5047129;28;20041;-44
2024/02/21 00:16:16;;;;;;;16.70;2.38;;;10.20;99.90;;;;;;5053523;28;20481;-40
2024/02/21 00:18:42;;;;;;;10.85;2.45;;;10.20;99.90;;;;;;5035776;28;20529;-38
2024/02/21 00:21:08;;;;;;;14.40;2.80;;;10.20;99.90;;;;;;5034980;28;20022;-40
2024/02/21 00:23:34;;;;;;;15.52;2.97;;;10.20;99.90;;;;;;5035067;28;20612;-43
2024/02/21 00:25:59;;;;;;;14.88;2.58;;;10.20;99.90;;;;;;5038820;28;20021;-43
2024/02/21 00:28:25;;;;;;;10.10;2.85;;;10.10;99.90;;;;;;5054051;28;20033;-42
2024/02/21 00:30:52;;;;;;;9.52;1.83;;;10.20;99.90;;;;;;5034487;28;20033;-43
2024/02/21 00:33:18;;;;;;;8.88;2.63;;;10.20;99.90;;;;;;5034853;28;20030;-45
2024/02/21 00:35:44;;;;;;;5.25;2.08;;;10.20;99.90;;;;;;5035028;28;20425;-40
2024/02/21 00:38:10;;;;;;;12.23;2.78;;;10.20;99.90;;;;;;5035126;28;20076;-43
2024/02/21 00:40:35;;;;;;;10.30;1.95;;;10.20;99.90;;;;;;5034774;28;20045;-49
2024/02/21 00:43:01;;;;;;;6.55;3.08;;;10.10;99.90;;;;;;5034716;28;20026;-43
2024/02/21 00:45:27;;;;;;;10.57;2.25;;;10.20;99.90;;;;;;5034857;28;20088;-45
2024/02/21 00:47:52;;;;;;;11.38;2.72;;;10.20;99.90;;;;;;5047758;28;20104;-48
2024/02/21 00:50:18;;;;;;;5.28;1.63;;;10.10;99.90;;;;;;5046058;28;20036;-46
2024/02/21 00:52:44;;;;;;;8.75;2.55;;;10.10;99.90;;;;;;5033445;28;20505;-48
2024/02/21 00:55:10;;;;;;;13.60;2.00;;;10.10;99.90;;;;;;5034733;28;20378;-41
2024/02/21 00:57:36;;;;;;;14.90;2.50;;;10.20;99.90;;;;;;5034779;28;20055;-47
2024/02/21 01:00:03;;;;;;;15.07;2.47;;;10.20;99.90;;;;;;5052529;28;20533;-44
2024/02/21 01:02:31;;;;;;;9.93;2.20;;;10.20;99.90;;;;;;5043855;28;20036;-44
2024/02/21 01:04:57;;;;;;;;;;;10.30;99.90;;;;;;5034883;28;20017;-39
2024/02/21 01:07:22;;;;;;;5.55;1.80;;;10.20;99.90;;;;;;5034407;28;20384;-47
2024/02/21 01:09:48;;;;;;;7.38;1.83;;;10.30;99.90;;;;;;5034997;28;20029;-40
2024/02/21 01:12:14;;;;;;;8.38;2.08;;;10.30;99.90;;;;;;5034203;28;20029;-41
2024/02/21 01:14:39;;;;;;;5.75;1.85;;;10.30;99.90;;;;;;5034121;28;20040;-41
2024/02/21 01:17:06;;;;;;;10.55;2.08;;;10.30;99.90;;;;;;5033984;28;20025;-55
2024/02/21 01:19:31;;;;;;;10.93;3.60;;;10.30;99.90;;;;;;5034159;28;20022;-56
2024/02/21 01:21:57;;;;;;;2.58;1.42;;;10.30;99.90;;;;;;5035275;28;20021;-58
2024/02/21 01:24:24;;;;;;;5.32;2.25;;;10.40;99.90;;;;;;5052977;28;20490;-56
2024/02/21 01:26:49;;;;;;;11.15;2.30;;;10.40;99.90;;;;;;5041925;28;20100;-54
2024/02/21 01:29:15;;;;;;;12.88;2.15;;;10.40;99.90;;;;;;5034002;28;20542;-55
2024/02/21 01:31:41;;;;;;;12.05;2.10;;;10.40;99.90;;;;;;5034197;28;20054;-55
2024/02/21 01:34:06;;;;;;;8.55;2.55;;;10.40;99.90;;;;;;5051052;28;20307;-55
2024/02/21 01:36:32;;;;;;;6.72;2.40;;;10.40;99.90;;;;;;5051536;28;20028;-48
2024/02/21 01:38:58;;;;;;;7.18;3.15;;;10.30;99.90;;;;;;5033723;28;20390;-55
2024/02/21 01:41:24;;;;;;;8.80;2.65;;;10.40;99.90;;;;;;5033433;28;20513;-55
2024/02/21 01:43:50;;;;;;;10.82;3.00;;;10.40;99.90;;;;;;5033892;28;20032;-54
2024/02/21 01:46:15;;;;;;;7.50;2.17;;;10.40;99.90;;;;;;5040533;28;20052;-54
2024/02/21 01:48:41;;;;;;;8.35;2.63;;;10.40;99.90;;;;;;5052553;28;20029;-56
2024/02/21 01:51:07;;;;;;;16.15;3.22;;;10.40;99.90;;;;;;5053752;28;20024;-56
2024/02/21 01:53:40;;;;;;;29.02;4.22;;;10.40;99.90;;;;;;5053523;28;20025;-55
2024/02/21 01:56:07;;;;;;;9.40;2.88;;;10.40;99.90;;;;;;5053416;28;20059;-55
2024/02/21 01:58:37;;;;;;;14.30;3.38;;;10.40;99.90;;;;;;5052705;28;20480;-55
2024/02/21 02:01:02;;;;;;;9.25;2.95;;;10.40;99.90;;;;;;5043633;28;20017;-55
2024/02/21 02:03:29;;;;;;;18.55;3.67;;;10.40;99.90;;;;;;5038223;28;20041;-54
2024/02/21 02:05:55;;;;;;;9.13;2.80;;;10.40;99.90;;;;;;5032460;28;20024;-42
2024/02/21 02:08:22;;;;;;;10.05;2.90;;;10.40;99.90;;;;;;5044501;28;20063;-39
2024/02/21 02:10:48;;;;;;;18.67;3.83;;;10.50;99.90;;;;;;5050904;28;20021;-41
2024/02/21 02:13:14;;;;;;;10.65;2.70;;;10.50;99.90;;;;;;5032866;28;20525;-39
2024/02/21 02:15:50;;;;;;;7.53;3.38;;;10.50;99.90;;;;;;5031856;28;20033;-39
2024/02/21 02:18:17;;;;;;;8.43;2.75;;;10.50;99.90;;;;;;5032851;28;20076;-39
2024/02/21 02:20:44;;;;;;;11.93;2.85;;;10.40;99.90;;;;;;5033230;28;20032;-50
2024/02/21 02:23:10;;;;;;;8.10;2.97;;;10.40;99.90;;;;;;5032907;28;20060;-40
2024/02/21 02:25:37;;;;;;;6.32;3.10;;;10.40;99.90;;;;;;5032987;28;20025;-39
2024/02/21 02:28:04;;;;;;;12.45;3.33;;;10.50;99.90;;;;;;5033040;28;20163;-56
2024/02/21 02:30:34;;;;;;;10.98;3.25;;;10.50;99.90;;;;;;5032048;28;20040;-55
2024/02/21 02:32:59;;;;;;;9.80;2.92;;;10.50;99.90;;;;;;5045940;28;20368;-54
2024/02/21 02:35:25;;;;;;;9.32;2.88;;;10.50;99.90;;;;;;5052767;28;20070;-54
2024/02/21 02:37:51;;;;;;;11.68;3.60;;;10.50;99.90;;;;;;5052689;28;20481;-55
2024/02/21 02:40:20;;;;;;;7.05;2.58;;;10.50;99.90;;;;;;5051747;28;20010;-55
2024/02/21 02:42:45;;;;;;;12.73;2.83;;;10.50;99.90;;;;;;5032787;28;20564;-53
2024/02/21 02:45:11;;;;;;;19.30;2.90;;;10.40;99.90;;;;;;5032941;28;20013;-55
2024/02/21 02:47:37;;;;;;;10.68;2.85;;;10.40;99.90;;;;;;5032381;28;20108;-57
2024/02/21 02:50:02;;;;;;;14.82;3.13;;;10.40;99.90;;;;;;5031338;28;20061;-55
2024/02/21 02:52:28;;;;;;;11.02;2.88;;;10.50;99.90;;;;;;5032908;28;20024;-55
2024/02/21 02:54:55;;;;;;;6.85;2.58;;;10.40;99.90;;;;;;5035500;28;20108;-54
2024/02/21 02:57:21;;;;;;;5.30;2.13;;;10.40;99.90;;;;;;5051839;28;20087;-55
2024/02/21 02:59:51;;;;;;;17.77;3.15;;;10.40;99.90;;;;;;5050435;28;20267;-58
2024/02/21 03:02:17;;;;;;;11.90;3.03;;;10.30;99.90;;;;;;5042326;28;20124;-54
2024/02/21 03:04:43;;;;;;;10.20;3.50;;;10.40;99.90;;;;;;5033114;28;20470;-54
2024/02/21 03:07:11;;;;;;;9.18;3.25;;;10.40;99.90;;;;;;5052401;28;20031;-54
2024/02/21 03:09:37;;;;;;;17.65;3.90;;;10.40;99.90;;;;;;5041282;28;20021;-55
2024/02/21 03:12:03;;;;;;;12.50;3.30;;;10.40;99.90;;;;;;5052349;28;20414;-55
2024/02/21 03:14:29;;;;;;;12.00;2.80;;;10.40;99.90;;;;;;5037614;28;20072;-55
2024/02/21 03:16:56;;;;;;;6.15;2.45;;;10.40;99.90;;;;;;5032581;28;20520;-60
2024/02/21 03:19:22;;;;;;;9.93;2.90;;;10.40;99.90;;;;;;5032206;28;20470;-55
2024/02/21 03:21:49;;;;;;;7.38;2.67;;;10.40;99.90;;;;;;5032381;28;20017;-55
2024/02/21 03:24:16;;;;;;;9.90;2.50;;;10.40;99.90;;;;;;5032304;28;20038;-54
2024/02/21 03:26:41;;;;;;;10.02;3.03;;;10.40;99.90;;;;;;5036500;28;20663;-55
2024/02/21 03:29:08;;;;;;;11.70;2.95;;;10.40;99.90;;;;;;5050835;28;20079;-53
2024/02/21 03:31:34;;;;;;;10.05;3.13;;;10.30;99.90;;;;;;5036274;28;20340;-55
2024/02/21 03:34:00;;;;;;;13.98;3.42;;;10.30;99.90;;;;;;5053218;28;20021;-53
2024/02/21 03:36:26;;;;;;;11.30;3.30;;;10.30;99.90;;;;;;5040812;28;20033;-52
2024/02/21 03:38:52;;;;;;;14.85;3.10;;;10.30;99.90;;;;;;5050385;28;20036;-55
2024/02/21 03:41:18;;;;;;;9.15;3.50;;;10.20;99.90;;;;;;5048913;28;20017;-54
2024/02/21 03:43:43;;;;;;;9.45;2.92;;;10.30;99.90;;;;;;5055866;28;20102;-54
2024/02/21 03:46:09;;;;;;;12.48;3.22;;;10.30;99.90;;;;;;5055869;28;20025;-55
2024/02/21 03:48:35;;;;;;;6.65;3.10;;;10.30;99.90;;;;;;5039255;28;20481;-55
2024/02/21 03:51:01;;;;;;;6.80;3.22;;;10.20;99.90;;;;;;5035811;28;20017;-54
2024/02/21 03:53:27;;;;;;;13.07;3.38;;;10.20;99.90;;;;;;5035723;28;20498;-55
2024/02/21 03:55:53;;;;;;;9.88;3.03;;;10.20;99.90;;;;;;5036003;28;20017;-54
2024/02/21 03:58:19;;;;;;;8.77;2.72;;;10.20;99.90;;;;;;5035546;28;20497;-54
2024/02/21 04:00:44;;;;;;;7.78;3.45;;;10.20;99.90;;;;;;5035998;28;20025;-55
2024/02/21 04:03:10;;;;;;;10.70;3.00;;;10.20;99.90;;;;;;5053806;28;20029;-55
2024/02/21 04:05:35;;;;;;;5.82;2.55;;;10.20;99.90;;;;;;5055512;28;20424;-56
2024/02/21 04:08:04;;;;;;;9.65;2.72;;;10.10;99.90;;;;;;5041918;28;20026;-56
2024/02/21 04:10:30;;;;;;;11.63;3.03;;;10.20;99.90;;;;;;5035496;28;20033;-53
2024/02/21 04:12:56;;;;;;;18.98;3.83;;;10.20;99.90;;;;;;5052206;28;20037;-55
2024/02/21 04:15:22;;;;;;;5.90;2.38;;;10.10;99.90;;;;;;5055326;28;20401;-54
2024/02/21 04:17:48;;;;;;;7.40;3.10;;;10.10;99.90;;;;;;5052256;28;20025;-54
2024/02/21 04:20:15;;;;;;;11.60;3.08;;;10.10;99.90;;;;;;5055175;28;20017;-54
2024/02/21 04:22:44;;;;;;;9.73;3.17;;;10.10;99.90;;;;;;5037698;28;20048;-54
2024/02/21 04:25:10;;;;;;;3.67;2.17;;;10.10;99.90;;;;;;5034141;28;20438;-54
2024/02/21 04:27:37;;;;;;;9.75;3.08;;;10.10;99.90;;;;;;5035153;28;20022;-55
2024/02/21 04:30:03;;;;;;;7.53;2.45;;;10.00;99.90;;;;;;5035131;28;20033;-55
2024/02/21 04:32:29;;;;;;;4.13;3.22;;;10.10;99.90;;;;;;5048236;28;20029;-54
2024/02/21 04:34:55;;;;;;;9.10;2.65;;;10.10;99.90;;;;;;5054802;28;20418;-55
2024/02/21 04:37:21;;;;;;;5.63;2.80;;;10.00;99.90;;;;;;5053522;28;20032;-55
2024/02/21 04:39:48;;;;;;;14.85;3.40;;;10.00;99.90;;;;;;5054879;28;20477;-55
2024/02/21 04:42:13;;;;;;;7.18;3.10;;;10.00;99.90;;;;;;5037501;28;20053;-54
2024/02/21 04:44:39;;;;;;;7.55;3.28;;;10.00;99.90;;;;;;5034916;28;20057;-55
2024/02/21 04:47:05;;;;;;;10.00;4.07;;;10.00;99.90;;;;;;5042497;28;20433;-55
2024/02/21 04:49:30;;;;;;;12.30;3.92;;;10.00;99.90;;;;;;5054594;28;20056;-55
2024/02/21 04:51:56;;;;;;;6.32;3.83;;;10.00;99.90;;;;;;5044059;28;20474;-54
2024/02/21 04:54:21;;;;;;;4.97;3.38;;;9.90;99.90;;;;;;5034906;28;20061;-55
2024/02/21 04:56:47;;;;;;;10.63;3.85;;;9.90;99.90;;;;;;5034485;28;20394;-55
2024/02/21 04:59:13;;;;;;;7.57;3.58;;;10.00;99.90;;;;;;5034775;28;20446;-55
2024/02/21 05:01:38;;;;;;;14.95;4.20;;;10.00;99.90;;;;;;5041018;28;20021;-55
2024/02/21 05:04:04;;;;;;;13.75;4.30;;;9.90;99.90;;;;;;5054627;28;20469;-55
2024/02/21 05:06:29;;;;;;;13.10;4.38;;;10.00;99.90;;;;;;5042985;28;20028;-56
2024/02/21 05:08:55;;;;;;;5.85;3.65;;;10.00;99.90;;;;;;5034341;28;20030;-55
2024/02/21 05:11:21;;;;;;;12.02;4.63;;;10.00;99.90;;;;;;5034273;28;20091;-54
2024/02/21 05:13:47;;;;;;;6.97;3.72;;;10.00;99.90;;;;;;5033025;28;20112;-54
2024/02/21 05:16:13;;;;;;;7.45;3.65;;;10.00;99.90;;;;;;5049037;28;20490;-55
2024/02/21 05:18:40;;;;;;;5.50;3.83;;;10.00;99.90;;;;;;5054036;28;20067;-55
2024/02/21 05:21:06;;;;;;;8.73;4.50;;;9.90;99.90;;;;;;5050744;28;20068;-55
2024/02/21 05:23:31;;;;;;;8.25;4.05;;;10.00;99.90;;;;;;5033971;28;20030;-55
2024/02/21 05:25:57;;;;;;;12.13;4.65;;;10.00;99.90;;;;;;5033933;28;20409;-55
2024/02/21 05:28:23;;;;;;;8.52;4.25;;;10.00;99.90;;;;;;5033965;28;20030;-56
2024/02/21 05:30:48;;;;;;;13.82;4.00;;;10.00;99.90;;;;;;5034721;28;20029;-56
2024/02/21 05:33:21;;;;;;;10.98;4.20;;;9.90;99.90;;;;;;5053762;28;20107;-55
2024/02/21 05:35:48;;;;;;;11.73;4.18;;;10.00;99.90;;;;;;5054121;28;20376;-54
2024/02/21 05:38:13;;;;;;;7.32;4.20;;;10.00;99.90;;;;;;5051969;28;20504;-41
2024/02/21 05:40:39;;;;;;;7.40;3.95;;;10.00;99.90;;;;;;5049376;28;20076;-42
2024/02/21 05:43:05;;;;;;;11.57;4.63;;;9.90;99.90;;;;;;5033701;28;20021;-42
2024/02/21 05:45:31;;;;;;;13.02;4.72;;;9.90;99.90;;;;;;5036794;28;20044;-40
2024/02/21 05:47:59;;;;;;;10.70;3.92;;;10.00;99.90;;;;;;5033285;28;20030;-39
2024/02/21 05:50:26;;;;;;;9.32;4.55;;;10.00;99.90;;;;;;5039469;28;20485;-43
2024/02/21 05:52:52;;;;;;;14.05;5.28;;;9.90;99.90;;;;;;5053506;28;20067;-40
2024/02/21 05:55:18;;;;;;;8.93;4.70;;;10.00;99.90;;;;;;5053724;28;20509;-39
2024/02/21 05:57:44;;;;;;;16.20;5.68;;;10.00;99.90;;;;;;5053387;28;20033;-41
2024/02/21 06:00:10;;;;;;;16.40;4.50;;;10.00;99.90;;;;;;5040824;28;20037;-43
2024/02/21 06:02:35;;;;;;;7.10;4.75;;;10.00;99.90;;;;;;5033583;28;20022;-43
2024/02/21 06:05:01;;;;;;;10.27;4.82;;;10.00;99.90;;;;;;5033323;28;20437;-39
2024/02/21 06:07:27;;;;;;;9.10;4.53;;;10.00;99.90;;;;;;5033472;28;20026;-39
2024/02/21 06:09:52;;;;;;;8.70;4.07;;;10.00;99.90;;;;;;5033311;28;20083;-39
2024/02/21 06:12:18;;;;;;;11.70;4.70;;;10.00;99.90;;;;;;5033287;28;20029;-41
2024/02/21 06:14:44;;;;;;;8.73;4.53;;;10.00;99.90;;;;;;5035434;28;20597;-40
2024/02/21 06:17:10;;;;;;;13.05;4.75;;;10.00;99.90;;;;;;5033127;28;20394;-40
2024/02/21 06:19:35;;;;;;;7.72;5.38;;;10.00;99.90;;;;;;5033093;28;20029;-39
2024/02/21 06:22:01;;;;;;;11.55;4.75;;;9.90;99.90;;;;;;5033076;28;20022;-39
2024/02/21 06:24:27;;;;;;;12.80;6.32;;;9.90;99.90;;;;;;5036301;28;20075;-39
2024/02/21 06:26:52;;;;;;;7.70;4.75;;;9.90;99.90;;;;;;5032996;28;20021;-42
2024/02/21 06:29:18;;;;;;;18.10;5.97;;;9.90;99.90;;;;;;5032866;28;20068;-42
2024/02/21 06:31:44;;;;;;;10.63;5.97;;;9.90;99.90;;;;;;5032923;28;20121;-41
2024/02/21 06:34:09;;;;;;;19.35;6.03;;;9.90;99.90;;;;;;5032912;28;20408;-45
2024/02/21 06:36:35;;;;;;;14.60;6.47;;;9.90;99.90;;;;;;5032906;28;20037;-55
2024/02/21 06:39:01;;;;;;;14.50;6.00;;;9.90;99.90;;;;;;5032735;28;20030;-54
2024/02/21 06:41:26;;;;;;;13.63;5.80;;;9.90;99.90;;;;;;5032550;28;20436;-55
2024/02/21 06:43:52;;;;;;;14.55;7.00;;;9.90;99.90;;;;;;5032843;28;20057;-56
2024/02/21 06:46:25;;;;;;;14.82;5.05;;;9.90;99.90;;;;;;5033381;28;20057;-55
2024/02/21 06:48:52;;;;;;;16.67;6.60;;;9.90;99.90;;;;;;5032950;28;20478;-55
2024/02/21 06:51:17;;;;;;;17.35;5.53;;;9.90;99.90;;;;;;5032597;28;20081;-53
2024/02/21 06:53:43;;;;;;;14.68;5.72;;;9.80;99.90;;;;;;5032692;28;20087;-54
2024/02/21 06:56:10;;;;;;;12.10;5.45;;;9.80;99.90;;;;;;5032702;28;20394;-38
2024/02/21 06:58:36;;;;;;;19.88;5.82;;;9.80;99.90;;;;;;5032567;28;20080;-43
2024/02/21 07:01:02;;;;;;;19.42;5.32;;;9.80;99.90;;;;;;5036252;28;20462;-40
2024/02/21 07:03:27;;;;;;;17.58;5.88;;;9.80;99.90;;;;;;5048712;28;20104;-39
2024/02/21 07:05:53;;;;;;;15.93;6.07;;;9.80;99.90;;;;;;5056665;28;20029;-40
2024/02/21 07:08:18;;;;;;;14.48;5.47;;;9.80;99.90;;;;;;5056637;28;20047;-55
2024/02/21 07:10:44;;;;;;;10.35;5.13;;;9.80;99.90;;;;;;5054164;28;20032;-54
2024/02/21 07:13:10;;;;;;;11.85;5.78;;;9.90;99.90;;;;;;5036480;28;20398;-54
2024/02/21 07:15:36;;;;;;;20.63;6.05;;;9.80;99.90;;;;;;5039360;28;20041;-55
2024/02/21 07:18:02;;;;;;;25.75;6.63;;;9.80;99.90;;;;;;5036361;28;20108;-55
2024/02/21 07:20:28;;;;;;;10.30;5.60;;;9.80;99.90;;;;;;5036379;28;20152;-55
2024/02/21 07:22:54;;;;;;;20.75;6.32;;;9.80;99.90;;;;;;5036276;28;20099;-55
2024/02/21 07:25:20;;;;;;;17.50;6.45;;;9.80;99.90;;;;;;5036349;28;20474;-55
2024/02/21 07:27:46;;;;;;;11.82;5.68;;;9.80;99.90;;;;;;5048964;28;20087;-54
2024/02/21 07:30:12;;;;;;;22.92;6.07;;;9.80;99.90;;;;;;5046339;28;20022;-54
2024/02/21 07:32:37;;;;;;;13.23;5.65;;;9.70;99.90;;;;;;5036073;28;20116;-55
2024/02/21 07:35:03;;;;;;;14.02;6.63;;;9.80;99.90;;;;;;5035997;28;20057;-55
2024/02/21 07:37:29;;;;;;;18.67;6.15;;;9.80;99.90;;;;;;5041475;28;20029;-55
2024/02/21 07:39:55;;;;;;;16.73;6.07;;;9.80;99.90;;;;;;5056032;28;20371;-54
2024/02/21 07:42:20;;;;;;;17.92;6.82;;;9.80;99.90;;;;;;5056280;28;20104;-54
2024/02/21 07:44:46;;;;;;;12.80;5.90;;;9.80;99.90;;;;;;5054553;28;20087;-53
2024/02/21 07:47:12;;;;;;;13.18;5.03;;;9.80;99.90;;;;;;5045004;28;20022;-55
2024/02/21 07:49:45;;;;;;;17.00;6.22;;;9.80;99.90;;;;;;5035996;28;20021;-55
2024/02/21 07:52:11;;;;;;;16.23;6.53;;;9.80;99.90;;;;;;5039625;28;20466;-55
2024/02/21 07:54:37;;;;;;;14.70;6.10;;;9.80;99.90;;;;;;5062027;28;20028;-55
2024/02/21 07:57:03;;;;;;;18.75;5.93;;;9.90;99.90;;;;;;5035742;28;20470;-56
2024/02/21 07:59:29;;;;;;;20.38;7.07;;;9.90;99.90;;;;;;5037442;28;20112;-52
2024/02/21 08:01:59;;;;;;;17.98;5.75;;;9.90;99.90;;;;;;5055907;28;20029;-55
2024/02/21 08:04:25;;;;;;;14.45;6.13;;;9.90;99.90;;;;;;5041863;28;20371;-51
2024/02/21 08:07:01;;;;;;;21.58;6.68;;;9.90;99.90;;;;;;5035482;28;20025;-53
2024/02/21 08:09:27;;;;;;;18.17;6.07;;;9.90;99.90;;;;;;5035722;28;20032;-54
2024/02/21 08:11:54;;;;;;;14.27;5.75;;;10.00;99.90;;;;;;5037756;28;20387;-55
2024/02/21 08:14:19;;;;;;;10.48;3.70;;;10.10;99.90;;;;;;5051780;28;20126;-53
2024/02/21 08:16:45;;;;;;;16.52;7.30;;;10.00;99.90;;;;;;5052811;28;20030;-55
2024/02/21 08:19:11;;;;;;;22.38;6.20;;;10.00;99.90;;;;;;5055330;28;20032;-43
2024/02/21 08:21:37;;;;;;;17.27;5.72;;;10.00;99.90;;;;;;5054365;28;20021;-38
2024/02/21 08:24:03;;;;;;;18.75;6.70;;;10.00;99.90;;;;;;5034866;28;20045;-38
2024/02/21 08:26:30;;;;;;;10.73;5.97;;;10.00;99.90;;;;;;5035069;28;20021;-39
2024/02/21 08:29:00;;;;;;;19.60;5.93;;;10.00;99.90;;;;;;5051005;28;20083;-38
2024/02/21 08:31:33;;;;;;;17.90;6.07;;;10.00;99.90;;;;;;5046908;28;20478;-45
2024/02/21 08:34:03;;;;;;;17.10;6.97;;;10.10;99.90;;;;;;5035075;28;20033;-41
2024/02/21 08:36:34;;;;;;;14.65;6.10;;;10.10;99.90;;;;;;5037599;28;20026;-41
2024/02/21 08:39:00;;;;;;;15.00;7.70;;;10.10;99.90;;;;;;5047129;28;20494;-39
2024/02/21 08:41:26;;;;;;;19.73;7.78;;;10.10;99.90;;;;;;5035025;28;20498;-57
2024/02/21 08:43:53;;;;;;;19.02;7.63;;;10.10;99.90;;;;;;5041285;28;20044;-54
2024/02/21 08:46:26;;;;;;;15.02;6.88;;;10.10;99.90;;;;;;5054834;28;20072;-53
2024/02/21 08:48:52;;;;;;;19.58;7.07;;;10.10;99.90;;;;;;5048122;28;20557;-53
2024/02/21 08:51:19;;;;;;;15.30;6.95;;;10.00;99.90;;;;;;5034628;28;20474;-54
2024/02/21 08:53:48;;;;;;;21.48;7.57;;;10.10;99.90;;;;;;5034675;28;20033;-54
2024/02/21 08:56:14;;;;;;;23.90;8.10;;;10.10;99.90;;;;;;5035233;28;20450;-55
2024/02/21 08:58:40;;;;;;;18.10;7.90;;;10.00;99.90;;;;;;5044053;28;20163;-54
2024/02/21 09:01:11;;;;;;;21.95;8.05;;;10.00;99.90;;;;;;5034745;28;20060;-55
2024/02/21 09:03:38;;;;;;;15.85;6.57;;;10.10;99.90;;;;;;5034315;28;20026;-54
2024/02/21 09:06:05;;;;;;;15.27;7.00;;;10.10;99.90;;;;;;5034378;28;20033;-52
2024/02/21 09:08:30;;;;;;;15.32;6.97;;;10.10;99.90;;;;;;5034250;28;20029;-56
2024/02/21 09:10:56;;;;;;;17.83;6.75;;;10.10;99.90;;;;;;5034699;28;20489;-52
2024/02/21 09:13:23;;;;;;;17.13;6.68;;;10.20;99.90;;;;;;5051710;28;20021;-58
2024/02/21 09:15:49;;;;;;;15.20;6.28;;;10.20;99.90;;;;;;5040854;28;20026;-55
2024/02/21 09:18:16;;;;;;;15.55;5.35;;;10.30;99.90;;;;;;5034203;28;20088;-56
2024/02/21 09:20:42;;;;;;;13.20;5.40;;;10.30;99.90;;;;;;5034517;28;20104;-56
2024/02/21 09:23:08;;;;;;;15.27;6.15;;;10.30;99.90;;;;;;5033450;28;20025;-54
2024/02/21 09:25:33;;;;;;;16.98;5.53;;;10.30;99.90;;;;;;5054095;28;20028;-58
2024/02/21 09:28:02;;;;;;;18.92;5.50;;;10.30;99.90;;;;;;5049397;28;20489;-54
2024/02/21 09:30:28;;;;;;;17.63;6.55;;;10.30;99.90;;;;;;5045042;28;20056;-58
2024/02/21 09:32:53;;;;;;;14.45;5.95;;;10.30;99.90;;;;;;5034570;28;20025;-54
2024/02/21 09:35:19;;;;;;;13.10;6.13;;;10.30;99.90;;;;;;5033777;28;20482;-54
2024/02/21 09:37:45;;;;;;;13.20;5.93;;;10.30;99.90;;;;;;5041028;28;20060;-56
2024/02/21 09:40:11;;;;;;;17.30;5.50;;;10.30;99.90;;;;;;5033571;28;20017;-55
2024/02/21 09:42:38;;;;;;;17.65;5.40;;;10.30;99.90;;;;;;5040228;28;20020;-56
2024/02/21 09:45:09;;;;;;;9.15;5.00;;;10.30;99.90;;;;;;5053455;28;20032;-56
2024/02/21 09:47:47;;;;;;;19.40;7.30;;;10.40;99.90;;;;;;5053921;28;20029;-56
2024/02/21 09:50:15;;;;;;;19.90;5.22;;;10.40;99.90;;;;;;5053001;28;20060;-56
2024/02/21 09:52:42;;;;;;;10.25;5.47;;;10.40;99.90;;;;;;5033635;28;20049;-56
2024/02/21 09:55:10;;;;;;;8.87;4.67;;;10.40;99.90;;;;;;5033577;28;20482;-58
2024/02/21 09:57:37;;;;;;;13.65;5.97;;;10.40;99.90;;;;;;5033575;28;20413;-56
2024/02/21 10:00:07;;;;;;;13.02;5.22;;;10.50;99.90;;;;;;5033373;28;20104;-55
2024/02/21 10:02:33;;;;;;;15.45;4.70;;;10.50;99.90;;;;;;5032289;28;20505;-54
2024/02/21 10:04:59;;;;;;;7.55;4.53;;;10.60;99.90;;;;;;5033363;28;20045;-54
2024/02/21 10:07:25;;;;;;;12.60;4.13;;;10.60;99.90;;;;;;5033279;28;20059;-52
2024/02/21 10:10:03;;;;;;;8.50;4.72;;;10.60;99.90;;;;;;5036936;28;20465;-55
2024/02/21 10:12:29;;;;;;;16.70;4.57;;;10.70;99.90;;;;;;5043251;28;20379;-56
2024/02/21 10:15:05;;;;;;;8.70;4.03;;;10.70;99.90;;;;;;5043566;28;20044;-49
2024/02/21 10:17:32;;;;;;;7.97;3.80;;;10.70;99.90;;;;;;5033307;28;20029;-54
2024/02/21 10:20:14;;;;;;;11.18;4.43;;;10.80;99.90;;;;;;5040761;28;20385;-54
2024/02/21 10:22:39;;;;;;;8.20;4.10;;;10.80;99.90;;;;;;5052899;28;20032;-54
2024/02/21 10:25:09;;;;;;;8.95;4.63;;;10.90;99.90;;;;;;5043649;28;20033;-54
2024/02/21 10:27:36;;;;;;;6.43;3.85;;;10.90;99.90;;;;;;5032848;28;20030;-54
2024/02/21 10:30:02;;;;;;;11.77;4.13;;;11.00;99.90;;;;;;5033209;28;20531;-55
2024/02/21 10:32:28;;;;;;;9.27;4.43;;;11.00;99.90;;;;;;5031654;28;20017;-56
2024/02/21 10:35:08;;;;;;;10.13;4.32;;;11.00;99.90;;;;;;5036249;28;20105;-55
2024/02/21 10:37:34;;;;;;;8.20;4.65;;;11.10;99.90;;;;;;5033227;28;20510;-44
2024/02/21 10:40:01;;;;;;;7.13;3.55;;;11.10;99.90;;;;;;5040197;28;20100;-39
2024/02/21 10:42:34;;;;;;;11.43;4.05;;;11.30;99.90;;;;;;5052978;28;20481;-39
2024/02/21 10:45:04;;;;;;;8.82;3.38;;;11.40;99.90;;;;;;5041576;28;20470;-44
2024/02/21 10:47:32;;;;;;;8.63;3.25;;;11.40;99.90;;;;;;5045441;28;20021;-40
2024/02/21 10:50:03;;;;;;;7.82;3.63;;;11.40;99.90;;;;;;5052587;28;20048;-41
2024/02/21 10:52:44;;;;;;;5.35;3.05;;;11.40;99.90;;;;;;5052772;28;20481;-41
2024/02/21 10:55:26;;;;;;;7.10;3.20;;;11.40;99.90;;;;;;5040952;28;20382;-42
2024/02/21 10:57:52;;;;;;;5.38;3.08;;;11.40;99.90;;;;;;5032578;28;20030;-43
2024/02/21 11:00:18;;;;;;;6.18;3.30;;;11.40;99.90;;;;;;5032895;28;20090;-43
2024/02/21 11:02:46;;;;;;;7.40;3.40;;;11.40;99.90;;;;;;5032712;28;20604;-44
2024/02/21 11:05:13;;;;;;;4.50;3.17;;;11.20;99.90;;;;;;5031364;28;20022;-40
2024/02/21 11:07:40;;;;;;;9.25;3.65;;;11.20;99.90;;;;;;5032539;28;20141;-39
2024/02/21 11:10:19;;;;;;;5.05;3.65;;;11.20;99.90;;;;;;5032230;28;20018;-43
2024/02/21 11:12:45;;;;;;;7.03;3.22;;;11.10;99.90;;;;;;5031660;28;20470;-42
2024/02/21 11:15:11;;;;;;;4.65;3.15;;;11.10;99.90;;;;;;5032339;28;20017;-40
2024/02/21 11:17:37;;;;;;;10.60;4.03;;;11.00;99.90;;;;;;5032306;28;20347;-40
2024/02/21 11:20:13;;;;;;;6.35;3.47;;;11.10;99.90;;;;;;5032530;28;20077;-42
2024/02/21 11:22:42;;;;;;;6.68;3.65;;;11.10;99.90;;;;;;5032461;28;20025;-47
2024/02/21 11:25:11;;;;;;;7.82;4.10;;;11.00;99.90;;;;;;5043937;28;20116;-40
2024/02/21 11:27:37;;;;;;;5.78;3.65;;;11.00;99.90;;;;;;5033015;28;20025;-40
2024/02/21 11:30:05;;;;;;;9.07;4.45;;;11.00;99.90;;;;;;5032177;28;20056;-39
2024/02/21 11:32:31;;;;;;;6.85;4.30;;;11.00;99.90;;;;;;5050279;28;20416;-41
2024/02/21 11:35:01;;;;;;;6.60;3.80;;;10.90;99.90;;;;;;5052231;28;20022;-46
2024/02/21 11:37:29;;;;;;;11.45;4.05;;;10.90;99.90;;;;;;5046648;28;20025;-39
2024/02/21 11:39:57;;;;;;;7.55;4.93;;;10.90;99.90;;;;;;5050452;28;20481;-41
2024/02/21 11:42:26;;;;;;;9.52;3.72;;;11.00;99.90;;;;;;5032296;28;20075;-41
2024/02/21 11:44:52;;;;;;;8.13;4.43;;;11.00;99.90;;;;;;5032311;28;20013;-47
2024/02/21 11:47:18;;;;;;;6.10;3.92;;;11.00;99.90;;;;;;5043544;28;20036;-43
2024/02/21 11:49:46;;;;;;;6.22;4.07;;;11.10;99.90;;;;;;5036554;28;20439;-43
2024/02/21 11:52:15;;;;;;;10.45;4.00;;;11.30;99.90;;;;;;5036197;28;20025;-41
2024/02/21 11:54:43;;;;;;;10.60;4.95;;;11.40;99.90;;;;;;5050252;28;20029;-43
2024/02/21 11:57:09;;;;;;;6.75;4.00;;;11.50;99.90;;;;;;5055869;28;20048;-42
2024/02/21 11:59:34;;;;;;;7.43;3.97;;;11.60;99.90;;;;;;5041907;28;20029;-39
2024/02/21 12:02:03;;;;;;;8.02;4.60;;;11.70;99.90;;;;;;5055677;28;20497;-42
2024/02/21 12:04:30;;;;;;;9.90;4.50;;;11.70;99.90;;;;;;5054032;28;20024;-41
2024/02/21 12:06:57;;;;;;;13.43;4.20;;;11.80;99.90;;;;;;5055571;28;20104;-43
2024/02/21 12:09:24;;;;;;;8.45;3.95;;;11.80;99.90;;;;;;5043656;28;20105;-45
2024/02/21 12:12:07;;;;;;;7.00;4.38;;;11.80;99.90;;;;;;5034296;28;20077;-42
2024/02/21 12:14:34;;;;;;;7.45;4.32;;;11.70;99.90;;;;;;5035455;28;20040;-48
2024/02/21 12:17:02;;;;;;;5.97;3.67;;;11.60;99.90;;;;;;5040787;28;20486;-45
2024/02/21 12:19:31;;;;;;;10.95;4.60;;;11.50;99.90;;;;;;5055263;28;20021;-39
2024/02/21 12:21:58;;;;;;;6.20;4.18;;;11.50;99.90;;;;;;5055398;28;20385;-43
2024/02/21 12:24:26;;;;;;;6.35;3.78;;;11.40;99.90;;;;;;5042664;28;20121;-40
2024/02/21 12:26:53;;;;;;;4.57;2.88;;;11.50;99.90;;;;;;5035343;28;20030;-40
2024/02/21 12:29:19;;;;;;;7.57;3.70;;;11.60;99.90;;;;;;5043293;28;20107;-42
2024/02/21 12:31:45;;;;;;;9.55;4.35;;;11.70;99.90;;;;;;5053339;28;20037;-44
2024/02/21 12:34:11;;;;;;;4.22;3.45;;;11.70;99.90;;;;;;5046175;28;20026;-42
2024/02/21 12:36:43;;;;;;;6.35;3.38;;;11.70;99.90;;;;;;5034975;28;20393;-47
2024/02/21 12:39:11;;;;;;;5.32;3.65;;;11.70;99.90;;;;;;5041216;28;20429;-43
2024/02/21 12:41:42;;;;;;;12.02;4.50;;;11.70;99.90;;;;;;5053705;28;20033;-41